createdAt,value
2018-02-23T00:00:22.199Z,9.27
2018-02-23T00:02:49.322Z,10.23
2018-02-23T00:05:16.419Z,10.13
2018-02-23T00:07:47.192Z,8.60
2018-02-23T00:10:14.038Z,9.90
2018-02-23T00:12:40.928Z,9.53
2018-02-23T00:15:07.625Z,8.97
2018-02-23T00:17:34.440Z,8.10
2018-02-23T00:20:02.404Z,9.20
2018-02-23T00:22:35.160Z,9.80
2018-02-23T00:25:01.867Z,8.53
2018-02-23T00:27:29.422Z,9.30
2018-02-23T00:29:56.722Z,9.03
2018-02-23T00:32:23.366Z,10.07
2018-02-23T00:34:50.237Z,8.40
2018-02-23T00:37:16.970Z,8.23
2018-02-23T00:39:43.573Z,9.37
2018-02-23T00:42:10.204Z,9.87
2018-02-23T00:44:36.815Z,9.23
2018-02-23T00:47:03.439Z,8.70
2018-02-23T00:49:30.314Z,9.37
2018-02-23T00:51:56.939Z,9.80
2018-02-23T00:54:23.554Z,9.40
2018-02-23T00:56:50.260Z,9.00
2018-02-23T00:59:16.965Z,8.57
2018-02-23T01:01:43.560Z,8.80
2018-02-23T01:04:10.193Z,8.90
2018-02-23T01:06:36.957Z,9.20
2018-02-23T01:09:03.613Z,8.33
2018-02-23T01:11:31.140Z,9.07
2018-02-23T01:13:57.896Z,8.97
2018-02-23T01:16:24.603Z,8.80
2018-02-23T01:18:51.212Z,9.30
2018-02-23T01:21:18.228Z,7.43
2018-02-23T01:23:45.063Z,8.20
2018-02-23T01:26:11.751Z,7.77
2018-02-23T01:28:38.480Z,7.20
2018-02-23T01:31:05.485Z,7.93
2018-02-23T01:33:32.178Z,8.13
2018-02-23T01:35:58.872Z,7.80
2018-02-23T01:38:25.588Z,8.40
2018-02-23T01:40:52.195Z,7.60
2018-02-23T01:43:20.120Z,8.07
2018-02-23T01:45:46.754Z,7.20
2018-02-23T01:48:13.361Z,7.33
2018-02-23T01:50:45.867Z,7.73
2018-02-23T01:53:12.586Z,8.10
2018-02-23T01:55:39.261Z,7.20
2018-02-23T01:58:05.959Z,8.20
2018-02-23T02:00:32.805Z,9.00
2018-02-23T02:02:59.784Z,7.47
2018-02-23T02:05:26.455Z,7.80
2018-02-23T02:07:53.118Z,7.60
2018-02-23T02:10:20.924Z,7.60
2018-02-23T02:12:47.762Z,7.30
2018-02-23T02:15:14.384Z,7.27
2018-02-23T02:17:41.052Z,7.20
2018-02-23T02:20:07.702Z,7.33
2018-02-23T02:22:34.398Z,7.00
2018-02-23T02:25:01.570Z,8.10
2018-02-23T02:27:28.210Z,7.40
2018-02-23T02:29:54.828Z,7.97
2018-02-23T02:32:21.946Z,8.10
2018-02-23T02:34:48.542Z,7.57
2018-02-23T02:37:15.202Z,7.40
2018-02-23T02:39:41.784Z,7.10
2018-02-23T02:42:08.616Z,7.03
2018-02-23T02:44:35.431Z,7.53
2018-02-23T02:47:02.123Z,7.40
2018-02-23T02:49:29.101Z,7.43
2018-02-23T02:51:55.756Z,7.57
2018-02-23T02:54:22.464Z,7.60
2018-02-23T02:56:49.083Z,6.50
2018-02-23T02:59:15.680Z,8.57
2018-02-23T03:01:42.287Z,8.10
2018-02-23T03:04:08.877Z,6.87
2018-02-23T03:06:35.498Z,5.97
2018-02-23T03:09:02.103Z,6.93
2018-02-23T03:11:28.725Z,7.03
2018-02-23T03:13:55.328Z,7.53
2018-02-23T03:16:22.188Z,6.53
2018-02-23T03:18:48.913Z,8.10
2018-02-23T03:21:15.763Z,6.83
2018-02-23T03:23:42.399Z,7.67
2018-02-23T03:26:09.951Z,6.60
2018-02-23T03:28:37.321Z,6.40
2018-02-23T03:31:03.946Z,6.33
2018-02-23T03:33:30.548Z,7.43
2018-02-23T03:35:57.590Z,7.90
2018-02-23T03:38:24.579Z,7.53
2018-02-23T03:40:51.287Z,7.47
2018-02-23T03:43:17.891Z,6.80
2018-02-23T03:45:44.667Z,6.40
2018-02-23T03:48:12.299Z,6.70
2018-02-23T03:50:39.788Z,7.40
2018-02-23T03:53:06.394Z,6.00
2018-02-23T03:55:33.054Z,7.80
2018-02-23T03:58:00.328Z,7.90
2018-02-23T04:00:26.982Z,8.27
2018-02-23T04:02:53.575Z,7.73
2018-02-23T04:05:20.258Z,6.60
2018-02-23T04:07:46.800Z,7.33
2018-02-23T04:10:13.803Z,7.97
2018-02-23T04:12:40.419Z,6.33
2018-02-23T04:15:07.003Z,8.37
2018-02-23T04:17:33.618Z,6.53
2018-02-23T04:20:01.302Z,6.80
2018-02-23T04:22:27.962Z,6.40
2018-02-23T04:24:54.643Z,7.60
2018-02-23T04:27:21.324Z,7.30
2018-02-23T04:29:48.385Z,6.33
2018-02-23T04:32:15.119Z,6.83
2018-02-23T04:34:41.764Z,6.63
2018-02-23T04:37:08.360Z,6.20
2018-02-23T04:39:34.937Z,7.23
2018-02-23T04:42:01.559Z,6.10
2018-02-23T04:44:28.181Z,7.23
2018-02-23T04:46:54.787Z,6.70
2018-02-23T04:49:21.369Z,6.83
2018-02-23T04:51:48.006Z,7.87
2018-02-23T04:54:14.682Z,6.33
2018-02-23T04:56:41.265Z,6.63
2018-02-23T04:59:07.936Z,6.03
2018-02-23T05:01:35.670Z,7.47
2018-02-23T05:04:02.256Z,6.57
2018-02-23T05:06:28.852Z,6.00
2018-02-23T05:08:55.578Z,7.47
2018-02-23T05:11:22.388Z,5.80
2018-02-23T05:13:49.079Z,6.43
2018-02-23T05:16:15.817Z,6.13
2018-02-23T05:18:42.688Z,6.90
2018-02-23T05:21:10.605Z,6.40
2018-02-23T05:23:38.078Z,7.27
2018-02-23T05:26:05.138Z,6.53
2018-02-23T05:28:31.860Z,6.90
2018-02-23T05:30:59.105Z,6.70
2018-02-23T05:33:25.791Z,7.20
2018-02-23T05:35:52.360Z,7.83
2018-02-23T05:38:19.656Z,7.23
2018-02-23T05:40:46.550Z,7.20
2018-02-23T05:43:13.159Z,7.40
2018-02-23T05:45:39.782Z,7.73
2018-02-23T05:48:06.618Z,7.67
2018-02-23T05:50:33.242Z,8.23
2018-02-23T05:52:59.984Z,8.70
2018-02-23T05:55:27.101Z,6.93
2018-02-23T05:57:54.030Z,7.00
2018-02-23T06:00:20.948Z,7.40
2018-02-23T06:02:48.079Z,7.37
2018-02-23T06:05:14.672Z,8.30
2018-02-23T06:07:41.301Z,7.00
2018-02-23T06:10:08.147Z,7.37
2018-02-23T06:12:34.762Z,8.13
2018-02-23T06:15:01.393Z,6.97
2018-02-23T06:17:33.723Z,7.20
2018-02-23T06:20:06.055Z,7.83
2018-02-23T06:22:32.821Z,7.43
2018-02-23T06:24:59.417Z,7.60
2018-02-23T06:27:26.050Z,7.50
2018-02-23T06:29:52.848Z,8.40
2018-02-23T06:32:19.632Z,7.93
2018-02-23T06:34:46.291Z,8.33
2018-02-23T06:37:13.678Z,7.93
2018-02-23T06:39:40.332Z,9.03
2018-02-23T06:42:06.973Z,8.37
2018-02-23T06:44:33.647Z,9.73
2018-02-23T06:47:06.039Z,7.90
2018-02-23T06:49:32.676Z,7.57
2018-02-23T06:51:59.291Z,6.47
2018-02-23T06:54:26.051Z,7.40
2018-02-23T06:56:52.774Z,7.80
2018-02-23T06:59:19.885Z,7.10
2018-02-23T07:01:46.669Z,8.63
2018-02-23T07:04:13.251Z,7.03
2018-02-23T07:06:40.662Z,8.00
2018-02-23T07:09:07.266Z,6.83
2018-02-23T07:11:34.046Z,8.47
2018-02-23T07:14:00.783Z,7.93
2018-02-23T07:16:27.513Z,7.63
2018-02-23T07:18:54.104Z,8.13
2018-02-23T07:21:20.840Z,8.10
2018-02-23T07:23:47.674Z,7.80
2018-02-23T07:26:14.836Z,7.27
2018-02-23T07:28:41.509Z,7.33
2018-02-23T07:31:08.170Z,5.90
2018-02-23T07:33:35.316Z,7.00
2018-02-23T07:36:01.904Z,7.60
2018-02-23T07:38:28.799Z,7.20
2018-02-23T07:40:55.495Z,6.67
2018-02-23T07:43:22.118Z,7.20
2018-02-23T07:45:48.726Z,7.27
2018-02-23T07:48:15.424Z,8.00
2018-02-23T07:50:42.536Z,6.50
2018-02-23T07:53:09.143Z,7.13
2018-02-23T07:55:35.827Z,8.47
2018-02-23T07:58:02.693Z,6.10
2018-02-23T08:00:29.322Z,8.60
2018-02-23T08:02:56.039Z,7.43
2018-02-23T08:05:23.428Z,8.63
2018-02-23T08:07:50.172Z,9.40
2018-02-23T08:10:16.780Z,9.27
2018-02-23T08:12:43.488Z,7.37
2018-02-23T08:15:10.666Z,10.07
2018-02-23T08:17:37.452Z,7.53
2018-02-23T08:20:04.181Z,9.80
2018-02-23T08:22:30.816Z,10.47
2018-02-23T08:24:57.555Z,9.33
2018-02-23T08:27:24.783Z,11.73
2018-02-23T08:29:51.416Z,9.10
2018-02-23T08:32:18.146Z,11.70
2018-02-23T08:34:44.857Z,10.60
2018-02-23T08:37:11.516Z,11.23
2018-02-23T08:39:38.173Z,11.43
2018-02-23T08:42:04.839Z,10.80
2018-02-23T08:44:31.653Z,10.40
2018-02-23T08:46:58.540Z,11.90
2018-02-23T08:49:25.208Z,12.40
2018-02-23T08:51:52.470Z,10.30
2018-02-23T08:54:19.116Z,9.30
2018-02-23T08:56:45.763Z,12.80
2018-02-23T08:59:12.402Z,12.10
2018-02-23T09:01:39.087Z,12.00
2018-02-23T09:04:05.797Z,12.20
2018-02-23T09:06:32.644Z,11.97
2018-02-23T09:08:59.858Z,11.83
2018-02-23T09:11:26.504Z,13.20
2018-02-23T09:13:53.113Z,12.07
2018-02-23T09:16:19.729Z,12.83
2018-02-23T09:18:46.422Z,12.53
2018-02-23T09:21:13.193Z,11.37
2018-02-23T09:23:39.779Z,12.40
2018-02-23T09:26:06.697Z,13.20
2018-02-23T09:28:33.396Z,11.97
2018-02-23T09:31:00.102Z,10.13
2018-02-23T09:33:32.562Z,11.60
2018-02-23T09:35:59.194Z,13.40
2018-02-23T09:38:25.991Z,13.70
2018-02-23T09:40:52.577Z,11.47
2018-02-23T09:43:19.211Z,12.67
2018-02-23T09:45:45.803Z,12.27
2018-02-23T09:48:12.494Z,12.27
2018-02-23T09:50:39.255Z,13.10
2018-02-23T09:53:05.874Z,12.43
2018-02-23T09:55:32.528Z,11.17
2018-02-23T09:57:59.247Z,12.93
2018-02-23T10:00:25.885Z,13.67
2018-02-23T10:02:52.486Z,12.80
2018-02-23T10:05:19.216Z,12.23
2018-02-23T10:07:45.815Z,15.17
2018-02-23T10:10:12.445Z,10.37
2018-02-23T10:12:39.078Z,13.20
2018-02-23T10:15:05.713Z,12.30
2018-02-23T10:17:32.399Z,11.10
2018-02-23T10:19:59.022Z,12.30
2018-02-23T10:22:25.648Z,11.70
2018-02-23T10:24:52.283Z,11.33
2018-02-23T10:27:18.900Z,11.00
2018-02-23T10:29:45.520Z,9.60
2018-02-23T10:32:12.140Z,10.97
2018-02-23T10:34:38.789Z,13.17
2018-02-23T10:37:05.424Z,12.13
2018-02-23T10:39:32.040Z,12.33
2018-02-23T10:41:58.711Z,11.30
2018-02-23T10:44:25.377Z,11.87
2018-02-23T10:46:51.995Z,12.70
2018-02-23T10:49:18.602Z,12.83
2018-02-23T10:51:45.253Z,11.77
2018-02-23T10:54:11.846Z,12.00
2018-02-23T10:56:38.455Z,12.00
2018-02-23T10:59:05.059Z,12.30
2018-02-23T11:01:31.679Z,10.40
2018-02-23T11:03:58.326Z,12.53
2018-02-23T11:06:24.949Z,14.27
2018-02-23T11:08:51.641Z,12.17
2018-02-23T11:11:18.305Z,10.77
2018-02-23T11:13:44.963Z,13.43
2018-02-23T11:16:11.626Z,14.00
2018-02-23T11:18:38.250Z,12.93
2018-02-23T11:21:04.895Z,14.00
2018-02-23T11:23:31.594Z,15.30
2018-02-23T11:25:58.463Z,14.70
2018-02-23T11:28:25.099Z,13.20
2018-02-23T11:30:51.765Z,13.33
2018-02-23T11:33:18.377Z,13.60
2018-02-23T11:35:45.146Z,13.80
2018-02-23T11:38:11.784Z,13.73
2018-02-23T11:40:38.400Z,13.50
2018-02-23T11:43:05.010Z,12.40
2018-02-23T11:45:31.780Z,12.67
2018-02-23T11:47:58.372Z,14.03
2018-02-23T11:50:25.088Z,15.20
2018-02-23T11:52:51.667Z,14.50
2018-02-23T11:55:18.262Z,15.50
2018-02-23T11:57:44.885Z,14.57
2018-02-23T12:00:11.506Z,12.70
2018-02-23T12:02:38.165Z,14.90
2018-02-23T12:05:04.830Z,15.20
2018-02-23T12:07:31.439Z,14.83
2018-02-23T12:09:58.219Z,15.33
2018-02-23T12:12:24.853Z,14.97
2018-02-23T12:14:51.505Z,15.57
2018-02-23T12:17:18.128Z,16.20
2018-02-23T12:19:44.745Z,16.07
2018-02-23T12:22:11.341Z,16.70
2018-02-23T12:24:37.977Z,14.97
2018-02-23T12:27:04.628Z,16.27
2018-02-23T12:29:31.272Z,16.43
2018-02-23T12:31:57.874Z,16.63
2018-02-23T12:34:24.553Z,15.03
2018-02-23T12:36:51.239Z,17.70
2018-02-23T12:39:17.844Z,14.70
2018-02-23T12:41:44.572Z,16.10
2018-02-23T12:44:11.216Z,16.70
2018-02-23T12:46:37.812Z,15.40
2018-02-23T12:49:04.729Z,16.43
2018-02-23T12:51:31.599Z,16.40
2018-02-23T12:53:58.221Z,16.00
2018-02-23T12:56:24.872Z,17.17
2018-02-23T12:58:51.469Z,14.23
2018-02-23T13:01:18.080Z,16.07
2018-02-23T13:03:44.716Z,16.60
2018-02-23T13:06:11.373Z,15.93
2018-02-23T13:08:37.992Z,15.77
2018-02-23T13:11:04.651Z,16.93
2018-02-23T13:13:31.280Z,16.20
2018-02-23T13:15:57.913Z,15.60
2018-02-23T13:18:24.521Z,16.97
2018-02-23T13:20:51.191Z,16.27
2018-02-23T13:23:17.833Z,16.60
2018-02-23T13:25:44.444Z,17.40
2018-02-23T13:28:16.742Z,13.47
2018-02-23T13:30:43.366Z,15.00
2018-02-23T13:33:10.050Z,14.90
2018-02-23T13:35:36.660Z,18.33
2018-02-23T13:38:03.289Z,17.43
2018-02-23T13:40:30.787Z,14.23
2018-02-23T13:42:57.396Z,17.47
2018-02-23T13:45:24.219Z,15.93
2018-02-23T13:47:50.853Z,16.00
2018-02-23T13:50:17.495Z,15.80
2018-02-23T13:52:44.131Z,18.50
2018-02-23T13:55:11.026Z,17.87
2018-02-23T13:57:37.697Z,14.53
2018-02-23T14:00:04.299Z,16.47
2018-02-23T14:02:31.098Z,16.53
2018-02-23T14:04:57.709Z,18.00
2018-02-23T14:07:39.242Z,14.87
2018-02-23T14:10:05.874Z,18.40
2018-02-23T14:12:32.549Z,16.77
2018-02-23T14:14:59.394Z,16.30
2018-02-23T14:17:26.098Z,15.50
2018-02-23T14:19:52.776Z,17.93
2018-02-23T14:22:19.437Z,18.50
2018-02-23T14:24:46.082Z,17.90
2018-02-23T14:27:12.665Z,17.40
2018-02-23T14:29:39.312Z,18.10
2018-02-23T14:32:05.903Z,16.53
2018-02-23T14:34:32.605Z,16.23
2018-02-23T14:36:59.177Z,16.23
2018-02-23T14:39:25.823Z,16.47
2018-02-23T14:41:52.461Z,16.50
2018-02-23T14:44:19.114Z,16.00
2018-02-23T14:46:45.778Z,15.40
2018-02-23T14:49:17.277Z,15.97
2018-02-23T14:51:43.905Z,14.97
2018-02-23T14:54:10.509Z,16.77
2018-02-23T14:56:37.144Z,15.70
2018-02-23T14:59:03.863Z,14.50
2018-02-23T15:01:30.471Z,15.87
2018-02-23T15:03:57.298Z,14.67
2018-02-23T15:06:23.926Z,15.10
2018-02-23T15:08:50.578Z,16.03
2018-02-23T15:11:17.182Z,15.90
2018-02-23T15:13:43.840Z,15.53
2018-02-23T15:16:10.494Z,16.03
2018-02-23T15:18:37.132Z,16.47
2018-02-23T15:21:03.752Z,13.30
2018-02-23T15:23:30.823Z,14.73
2018-02-23T15:25:57.561Z,13.90
2018-02-23T15:28:24.207Z,15.77
2018-02-23T15:30:56.840Z,15.63
2018-02-23T15:33:23.696Z,13.70
2018-02-23T15:35:50.490Z,15.37
2018-02-23T15:38:17.109Z,16.40
2018-02-23T15:40:43.829Z,15.30
2018-02-23T15:43:10.549Z,15.53
2018-02-23T15:45:37.147Z,13.20
2018-02-23T15:48:11.706Z,14.00
2018-02-23T15:50:54.066Z,12.73
2018-02-23T15:53:20.727Z,14.20
2018-02-23T15:55:47.450Z,12.70
2018-02-23T15:58:30.652Z,14.83
2018-02-23T16:00:57.398Z,15.93
2018-02-23T16:03:23.961Z,14.23
2018-02-23T16:05:50.555Z,13.00
2018-02-23T16:08:17.151Z,13.27
2018-02-23T16:10:43.768Z,15.10
2018-02-23T16:13:10.586Z,16.80
2018-02-23T16:15:37.281Z,13.90
2018-02-23T16:18:04.084Z,13.00
2018-02-23T16:20:30.721Z,13.93
2018-02-23T16:22:57.561Z,14.30
2018-02-23T16:25:24.790Z,15.10
2018-02-23T16:27:51.428Z,15.40
2018-02-23T16:30:18.144Z,15.60
2018-02-23T16:32:44.815Z,12.93
2018-02-23T16:35:11.507Z,13.53
2018-02-23T16:37:38.198Z,11.47
2018-02-23T16:40:04.873Z,13.60
2018-02-23T16:42:31.492Z,16.50
2018-02-23T16:44:58.190Z,13.60
2018-02-23T16:47:24.918Z,13.40
2018-02-23T16:49:51.477Z,12.37
2018-02-23T16:52:18.376Z,13.37
2018-02-23T16:54:44.981Z,15.23
2018-02-23T16:57:11.742Z,15.07
2018-02-23T16:59:38.343Z,13.50
2018-02-23T17:02:04.970Z,13.60
2018-02-23T17:04:31.642Z,14.93
2018-02-23T17:06:58.326Z,14.37
2018-02-23T17:09:24.927Z,14.40
2018-02-23T17:11:51.621Z,13.70
2018-02-23T17:14:18.258Z,16.10
2018-02-23T17:16:44.911Z,15.40
2018-02-23T17:19:11.515Z,15.70
2018-02-23T17:21:38.152Z,13.57
2018-02-23T17:24:04.799Z,15.07
2018-02-23T17:26:31.481Z,14.20
2018-02-23T17:28:58.115Z,16.20
2018-02-23T17:31:24.727Z,14.70
2018-02-23T17:33:51.416Z,19.30
2018-02-23T17:36:18.058Z,16.43
2018-02-23T17:38:44.757Z,16.17
2018-02-23T17:41:11.509Z,17.40
2018-02-23T17:43:38.100Z,18.80
2018-02-23T17:46:04.724Z,15.57
2018-02-23T17:48:31.371Z,16.17
2018-02-23T17:50:58.258Z,17.90
2018-02-23T17:53:24.862Z,16.67
2018-02-23T17:55:51.482Z,18.60
2018-02-23T17:58:18.150Z,16.80
2018-02-23T18:00:44.780Z,18.93
2018-02-23T18:03:11.640Z,18.80
2018-02-23T18:05:38.415Z,15.87
2018-02-23T18:08:05.051Z,18.07
2018-02-23T18:10:31.700Z,15.83
2018-02-23T18:12:58.300Z,16.70
2018-02-23T18:15:24.917Z,18.97
2018-02-23T18:17:51.561Z,17.53
2018-02-23T18:20:18.149Z,16.27
2018-02-23T18:22:44.810Z,19.13
2018-02-23T18:25:11.692Z,18.90
2018-02-23T18:27:38.313Z,20.50
2018-02-23T18:30:05.931Z,19.50
2018-02-23T18:32:32.687Z,21.20
2018-02-23T18:34:59.431Z,19.03
2018-02-23T18:37:26.085Z,17.37
2018-02-23T18:39:52.716Z,20.27
2018-02-23T18:42:19.333Z,19.90
2018-02-23T18:44:46.873Z,20.63
2018-02-23T18:47:13.492Z,20.03
2018-02-23T18:49:40.169Z,19.10
2018-02-23T18:52:06.832Z,21.87
2018-02-23T18:54:34.122Z,20.23
2018-02-23T18:57:00.785Z,18.83
2018-02-23T18:59:27.422Z,18.93
2018-02-23T19:01:54.695Z,18.33
2018-02-23T19:04:21.344Z,21.50
2018-02-23T19:06:48.953Z,20.37
2018-02-23T19:09:15.582Z,19.10
2018-02-23T19:11:42.262Z,20.70
2018-02-23T19:14:08.890Z,18.57
2018-02-23T19:16:35.539Z,20.60
2018-02-23T19:19:02.162Z,19.13
2018-02-23T19:21:28.899Z,18.20
2018-02-23T19:23:55.606Z,21.07
2018-02-23T19:26:22.361Z,21.07
2018-02-23T19:28:49.741Z,18.77
2018-02-23T19:31:16.448Z,20.57
2018-02-23T19:33:43.047Z,21.47
2018-02-23T19:36:09.664Z,21.00
2018-02-23T19:38:36.381Z,21.07
2018-02-23T19:41:03.031Z,16.20
2018-02-23T19:43:29.672Z,19.10
2018-02-23T19:45:56.336Z,19.63
2018-02-23T19:48:22.953Z,19.60
2018-02-23T19:50:49.625Z,19.30
2018-02-23T19:53:16.523Z,22.40
2018-02-23T19:55:43.186Z,23.03
2018-02-23T19:58:09.811Z,22.00
2018-02-23T20:00:36.456Z,19.07
2018-02-23T20:03:03.181Z,20.57
2018-02-23T20:05:29.820Z,19.73
2018-02-23T20:07:56.528Z,21.00
2018-02-23T20:10:23.264Z,23.47
2018-02-23T20:12:50.053Z,23.10
2018-02-23T20:15:16.648Z,22.23
2018-02-23T20:17:43.305Z,23.50
2018-02-23T20:20:09.922Z,21.17
2018-02-23T20:22:36.570Z,22.60
2018-02-23T20:25:03.244Z,22.60
2018-02-23T20:27:29.917Z,23.47
2018-02-23T20:29:56.526Z,23.03
2018-02-23T20:32:23.182Z,23.70
2018-02-23T20:34:49.815Z,22.43
2018-02-23T20:37:16.420Z,24.17
2018-02-23T20:39:43.053Z,21.93
2018-02-23T20:42:09.708Z,24.53
2018-02-23T20:44:36.511Z,18.83
2018-02-23T20:47:03.106Z,20.80
2018-02-23T20:49:29.725Z,21.60
2018-02-23T20:51:56.373Z,24.60
2018-02-23T20:54:23.588Z,24.23
2018-02-23T20:56:50.230Z,22.90
2018-02-23T20:59:16.905Z,22.40
2018-02-23T21:01:43.628Z,22.03
2018-02-23T21:04:10.220Z,24.10
2018-02-23T21:06:37.082Z,24.60
2018-02-23T21:09:03.711Z,23.17
2018-02-23T21:11:30.486Z,22.97
2018-02-23T21:13:57.122Z,23.17
2018-02-23T21:16:24.190Z,23.10
2018-02-23T21:18:51.021Z,23.50
2018-02-23T21:21:17.826Z,23.73
2018-02-23T21:23:44.703Z,23.73
2018-02-23T21:26:12.445Z,23.20
2018-02-23T21:28:39.361Z,22.77
2018-02-23T21:31:06.282Z,24.20
2018-02-23T21:33:33.521Z,25.83
2018-02-23T21:36:00.381Z,24.80
2018-02-23T21:38:27.367Z,23.53
2018-02-23T21:40:54.273Z,21.80
2018-02-23T21:46:13.519Z,21.73
2018-02-23T21:48:40.283Z,22.53
2018-02-23T21:51:06.953Z,25.53
2018-02-23T21:53:33.581Z,23.47
2018-02-23T21:56:00.269Z,22.57
2018-02-23T21:58:26.896Z,22.47
2018-02-23T22:00:53.545Z,24.30
2018-02-23T22:03:20.212Z,21.27
2018-02-23T22:05:47.178Z,20.40
2018-02-23T22:08:13.806Z,23.17
2018-02-23T22:10:40.616Z,22.53
2018-02-23T22:13:07.209Z,23.17
2018-02-23T22:15:33.997Z,24.30
2018-02-23T22:18:00.837Z,24.03
2018-02-23T22:20:27.462Z,22.80
2018-02-23T22:22:54.125Z,22.83
2018-02-23T22:25:20.809Z,23.17
2018-02-23T22:27:47.479Z,23.87
2018-02-23T22:30:14.115Z,20.20
2018-02-23T22:32:40.771Z,24.47
2018-02-23T22:35:07.347Z,22.53
2018-02-23T22:37:33.968Z,24.07
2018-02-23T22:40:00.587Z,22.87
2018-02-23T22:42:27.197Z,23.20
2018-02-23T22:44:53.831Z,23.23
2018-02-23T22:47:20.426Z,26.23
2018-02-23T22:49:47.067Z,23.37
2018-02-23T22:52:13.708Z,22.20
2018-02-23T22:54:40.318Z,19.50
2018-02-23T22:57:06.931Z,21.90
2018-02-23T22:59:33.624Z,18.37
2018-02-23T23:02:00.243Z,19.43
2018-02-23T23:04:26.936Z,22.00
2018-02-23T23:06:53.507Z,21.73
2018-02-23T23:09:20.146Z,20.13
2018-02-23T23:11:46.859Z,22.33
2018-02-23T23:14:13.503Z,21.77
2018-02-23T23:16:40.141Z,19.83
2018-02-23T23:19:06.844Z,22.10
2018-02-23T23:21:34.459Z,21.37
2018-02-23T23:24:01.072Z,20.87
2018-02-23T23:26:27.704Z,19.73
2018-02-23T23:28:54.324Z,21.63
2018-02-23T23:31:20.943Z,19.20
2018-02-23T23:33:47.544Z,20.00
2018-02-23T23:36:14.160Z,18.30
2018-02-23T23:38:40.774Z,20.53
2018-02-23T23:41:07.411Z,22.67
2018-02-23T23:43:34.006Z,20.33
2018-02-23T23:46:00.655Z,18.17
2018-02-23T23:48:27.260Z,18.17
2018-02-23T23:50:53.903Z,18.70
2018-02-23T23:53:20.533Z,19.40
2018-02-23T23:55:47.178Z,20.23
2018-02-23T23:58:13.815Z,20.80
